Latest Weather Observations for Swanbourne

IDW60901

Issued at 7:45 pm WST Friday 1 August 2014 (issued every 10 minutes, with the page automatically refreshed every 10 minutes)

About weather observations | Map of Perth area stations | Latest observations for Perth area | Other Formats
Station Details ID: 009215 Name: SWANBOURNE Lat: -31.96 Lon: 115.76 Height: 40.96 m
Data from the previous 72 hours. | See also: Recent months at Swanbourne
Date/Time
WST
Tmp

°C
App
Tmp
°C
Dew
Point
°C
Rel
Hum
%
Delta-T

°C
Wind Press
QNH
hPa
Press
MSL
hPa
Rain
since
9 am
mm
Dir
 
Spd
km/h
Gust
km/h
Spd
kts
Gust
kts
01/07:30pm 11.4 8.7 5.5 67 2.7 E 9 9 5 5 - - 0.0
01/07:00pm 11.9 9.2 5.5 65 3.0 E 9 11 5 6 - - 0.0
01/06:30pm 12.5 9.8 5.7 63 3.2 ENE 9 11 5 6 - - 0.0
01/06:00pm 13.1 10.4 5.8 61 3.4 E 9 11 5 6 - - 0.0
01/05:30pm 14.8 12.5 5.6 54 4.4 ENE 7 11 4 6 - - 0.0
01/05:00pm 16.4 14.0 5.4 48 5.3 ENE 7 13 4 7 - - 0.0
01/04:30pm 17.4 15.1 5.7 46 5.7 ENE 7 13 4 7 - - 0.0
01/04:00pm 17.8 15.1 5.4 44 6.0 ENE 9 17 5 9 - - 0.0
01/03:30pm 17.9 14.6 4.8 42 6.3 NE 11 20 6 11 - - 0.0
01/03:00pm 18.0 14.3 4.6 41 6.4 NE 13 24 7 13 - - 0.0
01/02:30pm 17.8 13.8 5.1 43 6.1 ENE 15 24 8 13 - - 0.0
01/02:00pm 17.5 13.5 4.8 43 6.1 ENE 15 24 8 13 - - 0.0
01/01:30pm 17.1 13.1 5.1 45 5.8 ENE 15 30 8 16 - - 0.0
01/01:00pm 16.8 12.5 5.1 46 5.6 ENE 17 33 9 18 - - 0.0
01/12:30pm 15.8 10.7 4.2 46 5.4 ENE 20 35 11 19 - - 0.0
01/12:00pm 15.6 10.8 4.6 48 5.2 ENE 19 32 10 17 - - 0.0
01/11:30am 14.6 9.5 4.3 50 4.8 ENE 20 35 11 19 - - 0.0
01/11:00am 13.5 7.5 3.6 51 4.5 ENE 24 37 13 20 - - 0.0
01/10:30am 12.8 7.2 3.5 53 4.2 ENE 22 37 12 20 - - 0.0
01/10:00am 11.7 5.3 3.0 55 3.8 E 26 39 14 21 - - 0.0
01/09:30am 11.0 4.9 2.8 57 3.6 E 24 37 13 20 - - 0.0
01/09:00am 9.9 4.2 2.7 61 3.1 E 22 32 12 17 - - 0.0
01/08:30am 8.6 2.9 2.6 66 2.5 E 22 32 12 17 - - 0.0
01/08:00am 7.3 1.6 2.6 72 2.0 E 22 33 12 18 - - 0.0
01/07:30am 6.5 1.1 2.2 74 1.8 E 20 30 11 16 - - 0.0
01/07:00am 6.5 0.6 2.0 73 1.8 E 22 35 12 19 - - 0.0
01/06:30am 6.5 0.6 2.0 73 1.8 E 22 32 12 17 - - 0.0
01/06:00am 6.7 0.9 2.2 73 1.8 E 22 32 12 17 - - 0.0
01/05:30am 6.6 1.2 2.3 74 1.8 E 20 28 11 15 - - 0.0
01/05:00am 6.8 1.6 2.5 74 1.8 E 19 30 10 16 - - 0.0
01/04:30am 6.4 2.0 2.9 78 1.5 E 15 24 8 13 - - 0.0
01/04:00am 5.8 1.5 3.3 84 1.0 E 15 22 8 12 - - 0.0
01/03:30am 5.4 1.9 3.6 88 0.8 E 11 13 6 7 - - 0.0
01/03:00am 5.6 2.5 3.8 88 0.8 ESE 9 13 5 7 - - 0.0
01/02:30am 5.9 2.9 3.9 87 0.8 ESE 9 11 5 6 - - 0.0
01/02:00am 6.1 3.4 3.9 86 0.9 ESE 7 9 4 5 - - 0.0
01/01:30am 6.1 3.4 3.9 86 0.9 ESE 7 9 4 5 - - 0.0
01/01:00am 6.2 3.7 3.9 85 1.0 E 6 7 3 4 - - 0.0
01/12:30am 6.7 4.1 4.0 83 1.2 E 7 9 4 5 - - 0.0
01/12:00am 7.1 4.6 3.9 80 1.4 E 6 6 3 3 - - 0.0
 
Date/Time
WST
Tmp

°C
App
Tmp
°C
Dew
Point
°C
Rel
Hum
%
Delta-T

°C
Wind Press
QNH
hPa
Press
MSL
hPa
Rain
since
9 am
mm
Dir
 
Spd
km/h
Gust
km/h
Spd
kts
Gust
kts
31/11:30pm 7.8 5.9 4.7 81 1.4 ENE 4 6 2 3 - - 0.0
31/11:00pm 7.6 5.0 4.4 80 1.4 ENE 7 7 4 4 - - 0.0
31/10:30pm 7.8 5.4 4.2 78 1.6 ENE 6 7 3 4 - - 0.0
31/10:00pm 8.4 6.0 4.4 76 1.8 E 6 7 3 4 - - 0.0
31/09:30pm 8.9 6.3 4.1 72 2.1 E 7 11 4 6 - - 0.0
31/09:00pm 9.4 6.8 4.2 70 2.3 E 7 11 4 6 - - 0.0
31/08:30pm 9.7 6.7 4.3 69 2.4 E 9 13 5 7 - - 0.0
31/08:00pm 10.2 7.3 4.6 68 2.5 E 9 13 5 7 - - 0.0
31/07:30pm 10.3 7.8 4.5 67 2.6 E 7 11 4 6 - - 0.0
31/07:00pm 11.0 8.1 4.5 64 2.9 E 9 11 5 6 - - 0.0
31/06:30pm 11.5 8.6 4.7 63 3.1 E 9 13 5 7 - - 0.0
31/06:00pm 12.2 9.3 4.7 60 3.4 E 9 13 5 7 - - 0.0
31/05:30pm 13.1 10.6 4.8 57 3.8 E 7 13 4 7 - - 0.0
31/05:00pm 14.7 12.2 5.0 52 4.6 E 7 11 4 6 - - 0.0
31/04:30pm 15.7 13.0 5.6 51 4.8 SE 9 15 5 8 - - 0.0
31/04:00pm 15.9 14.4 6.9 55 4.4 S 4 13 2 7 - - 0.0
31/03:30pm 15.9 13.7 6.1 52 4.8 SSW 7 13 4 7 - - 0.0
31/03:00pm 16.5 14.1 4.2 44 5.8 ESE 6 11 3 6 - - 0.0
31/02:30pm 16.4 14.0 4.4 45 5.6 E 6 11 3 6 - - 0.0
31/02:00pm 15.6 13.2 4.3 47 5.3 SE 6 13 3 7 - - 0.0
31/01:30pm 15.7 12.9 5.3 50 5.0 SE 9 17 5 9 - - 0.0
31/01:00pm 15.1 12.6 4.5 49 4.9 E 7 13 4 7 - - 0.0
31/12:30pm 14.9 12.4 4.6 50 4.8 ESE 7 11 4 6 - - 0.0
31/12:00pm 14.6 11.5 5.4 54 4.4 SSE 11 20 6 11 - - 0.0
31/11:30am 14.4 11.7 5.5 55 4.2 SSE 9 13 5 7 - - 0.0
31/11:00am 13.3 10.3 4.2 54 4.2 SE 9 17 5 9 - - 0.0
31/10:30am 13.3 10.5 5.2 58 3.8 SE 9 17 5 9 - - 0.0
31/10:00am 12.0 8.6 4.2 59 3.5 SE 11 19 6 10 - - 0.0
31/09:30am 11.9 9.2 5.5 65 3.0 SSE 9 20 5 11 - - 0.0
31/09:00am 11.1 8.4 5.4 68 2.6 SE 9 17 5 9 - - 1.4
31/08:30am 10.4 8.5 6.5 77 1.8 SE 6 11 3 6 - - 1.4
31/08:00am 8.9 6.7 5.3 78 1.6 SE 6 7 3 4 - - 1.4
31/07:30am 8.7 6.3 5.3 79 1.5 SSE 7 11 4 6 - - 1.4
31/07:00am 8.6 5.8 5.0 78 1.6 SE 9 13 5 7 - - 1.4
31/06:30am 8.9 5.7 5.3 78 1.6 SE 11 17 6 9 - - 1.4
31/06:00am 9.3 6.5 5.3 76 1.8 SE 9 15 5 8 - - 1.4
31/05:30am 10.0 6.4 5.2 72 2.2 SE 13 20 7 11 - - 1.4
31/05:00am 10.3 6.5 5.7 73 2.1 SSE 15 20 8 11 - - 1.4
31/04:30am 10.9 7.2 6.1 72 2.2 SSE 15 24 8 13 - - 1.4
31/04:00am 11.6 7.0 6.5 71 2.4 SSE 20 32 11 17 - - 1.4
31/03:30am 11.9 7.5 7.4 74 2.2 SSE 20 32 11 17 - - 1.4
31/03:00am 12.3 8.6 10.0 86 1.2 SSE 20 30 11 16 - - 1.4
31/02:30am 12.6 9.8 11.2 91 0.7 SSE 17 26 9 14 - - 1.4
31/02:00am 13.0 10.8 12.2 95 0.4 S 15 24 8 13 - - 1.4
31/01:30am 13.4 11.7 12.5 94 0.5 SSE 13 22 7 12 - - 1.4
31/01:00am 13.6 13.0 12.2 91 0.8 SSE 7 9 4 5 - - 1.4
31/12:30am 14.2 12.7 11.9 86 1.2 SSE 11 17 6 9 - - 1.2
31/12:00am 14.6 13.3 11.2 80 1.8 SSW 9 15 5 8 - - 1.2
 
Date/Time
WST
Tmp

°C
App
Tmp
°C
Dew
Point
°C
Rel
Hum
%
Delta-T

°C
Wind Press
QNH
hPa
Press
MSL
hPa
Rain
since
9 am
mm
Dir
 
Spd
km/h
Gust
km/h
Spd
kts
Gust
kts
30/11:30pm 14.8 12.9 11.8 82 1.6 S 13 24 7 13 - - 1.2
30/11:00pm 15.2 13.1 12.5 84 1.5 S 15 22 8 12 - - 1.2
30/10:30pm 15.5 12.1 10.7 73 2.5 SW 19 24 10 13 - - 1.2
30/10:00pm 15.3 12.3 11.9 80 1.8 SW 19 28 10 15 - - 1.0
30/09:30pm 15.0 12.6 12.5 85 1.4 SW 17 26 9 14 - - 1.0
30/09:00pm 15.0 11.7 12.9 87 1.2 SW 22 33 12 18 - - 1.0
30/08:30pm 15.2 12.9 14.2 94 0.6 WSW 19 35 10 19 - - 1.0
30/08:00pm 15.2 12.8 14.4 95 0.5 W 20 30 11 16 - - 0.4
30/07:30pm 15.3 12.2 13.5 89 1.0 W 22 32 12 17 - - 0.4
30/07:00pm 16.5 12.3 11.0 70 3.0 W 24 37 13 20 - - 0.0
30/06:30pm 17.1 13.7 10.7 66 3.4 W 19 26 10 14 - - 0.0
30/06:00pm 16.6 13.4 9.8 64 3.6 W 17 24 9 13 - - 0.0
30/05:30pm 16.9 14.4 9.8 63 3.7 W 13 19 7 10 - - 0.0
30/05:00pm 17.3 14.2 10.2 63 3.8 W 17 26 9 14 - - 0.0
30/04:30pm 17.6 13.9 10.0 61 4.0 W 20 28 11 15 - - 0.0
30/04:00pm 18.8 15.0 9.8 56 4.8 W 20 32 11 17 - - 0.0
30/03:30pm 17.8 13.3 9.9 60 4.2 W 24 35 13 19 - - 0.0
30/03:00pm 17.7 14.0 10.3 62 3.9 W 20 32 11 17 - - 0.0
30/02:30pm 18.0 14.3 10.1 60 4.2 W 20 32 11 17 - - 0.0
30/02:00pm 18.4 14.7 10.3 59 4.3 W 20 30 11 16 - - 0.0
30/01:30pm 18.5 15.2 10.8 61 4.2 W 19 26 10 14 - - 0.0
30/01:00pm 17.6 14.2 10.5 63 3.8 WNW 19 26 10 14 - - 0.0
30/12:30pm 17.7 14.1 9.8 60 4.2 WNW 19 28 10 15 - - 0.0
30/12:00pm 17.9 14.3 9.8 59 4.3 WNW 19 28 10 15 - - 0.0
30/11:30am 17.6 14.7 9.8 60 4.1 W 15 26 8 14 - - 0.0
30/11:00am 17.4 13.5 9.6 60 4.1 WNW 20 30 11 16 - - 0.0
30/10:30am 17.1 13.3 9.8 62 3.8 WNW 20 30 11 16 - - 0.0
30/10:00am 17.0 13.4 10.6 66 3.4 W 20 30 11 16 - - 0.0
30/09:30am 16.8 13.7 10.4 66 3.4 W 17 26 9 14 - - 0.0
30/09:00am 16.7 13.5 9.9 64 3.6 WNW 17 24 9 13 - - 0.0
30/08:30am 16.6 13.9 10.5 67 3.2 W 15 24 8 13 - - 0.0
30/08:00am 16.4 12.9 8.9 61 3.9 W 17 24 9 13 - - 0.0
30/07:30am 16.3 13.0 9.7 65 3.5 W 17 24 9 13 - - 0.0
30/07:00am 16.3 13.3 9.3 63 3.6 W 15 22 8 12 - - 0.0
30/06:30am 16.4 12.4 8.9 61 3.9 WNW 20 28 11 15 - - 0.0
30/06:00am 16.3 12.2 8.5 60 4.0 W 20 32 11 17 - - 0.0
30/05:30am 16.5 12.6 9.4 63 3.7 WNW 20 30 11 16 - - 0.0
30/05:00am 16.4 12.6 9.1 62 3.8 WNW 19 28 10 15 - - 0.0
30/04:30am 16.4 12.5 9.3 63 3.7 WNW 20 28 11 15 - - 0.0
30/04:00am 16.2 12.3 8.7 61 3.8 WNW 19 28 10 15 - - 0.0
30/03:30am 16.4 12.6 9.1 62 3.8 WNW 19 30 10 16 - - 0.0
30/03:00am 16.3 12.9 9.0 62 3.8 WNW 17 22 9 12 - - 0.0
30/02:30am 16.1 13.2 9.8 66 3.3 WNW 15 24 8 13 - - 0.0
30/02:00am 16.0 12.2 9.0 63 3.6 W 19 26 10 14 - - 0.0
30/01:30am 16.2 12.9 9.4 64 3.5 W 17 24 9 13 - - 0.0
30/01:00am 16.4 13.5 9.6 64 3.5 W 15 20 8 11 - - 0.0
30/12:30am 16.3 12.7 9.7 65 3.5 W 19 28 10 15 - - 0.0
30/12:00am 15.9 12.8 10.4 70 2.9 WNW 17 32 9 17 - - 0.0
 
Date/Time
WST
Tmp

°C
App
Tmp
°C
Dew
Point
°C
Rel
Hum
%
Delta-T

°C
Wind Press
QNH
hPa
Press
MSL
hPa
Rain
since
9 am
mm
Dir
 
Spd
km/h
Gust
km/h
Spd
kts
Gust
kts
29/11:30pm 16.4 12.4 9.1 62 3.8 WNW 20 26 11 14 - - 0.0
29/11:00pm 16.5 13.1 10.6 68 3.1 WNW 19 26 10 14 - - 0.0
29/10:30pm 16.5 13.5 9.2 62 3.8 WNW 15 24 8 13 - - 0.0
29/10:00pm 16.6 13.2 9.3 62 3.8 WNW 17 26 9 14 - - 0.0
29/09:30pm 16.6 13.5 10.2 66 3.4 WNW 17 24 9 13 - - 0.0
29/09:00pm 16.8 13.4 10.6 67 3.3 WNW 19 28 10 15 - - 0.0
29/08:30pm 16.7 13.6 8.9 60 4.0 WNW 15 26 8 14 - - 0.0
29/08:00pm 16.6 12.5 8.8 60 4.0 WNW 20 28 11 15 - - 0.0

Latest Capital City Observations: Canberra | Sydney | Melbourne | Brisbane | Adelaide | Perth | Hobart | Darwin

Other Formats:

Comma delimited format used in spreadsheet applications
http://www.bom.gov.au/fwo/IDW60901/IDW60901.94614.axf

JavaScript Object Notation format (JSON) in row-major order
http://www.bom.gov.au/fwo/IDW60901/IDW60901.94614.json